Time;durP1;ratioP1;P1;durP2;ratioP2;P2;SDS_P1;SDS_P2;PMS_P1;PMS_P2;Temp;Humidity;BMP_temperature;BMP_pressure;BME280_temperature;BME280_humidity;BME280_pressure;Samples;Min_cycle;Max_cycle;Signal;HPM_P1;HPM_P2
2023/10/16 00:01:11;;;;;;;0.10;0.10;;;8.00;99.90;;;;;;5068676;28;20028;-75
2023/10/16 00:03:41;;;;;;;0.10;0.10;;;7.70;99.90;;;;;;5068468;28;20039;-75
2023/10/16 00:06:07;;;;;;;0.10;0.10;;;8.00;99.90;;;;;;5070891;28;20024;-75
2023/10/16 00:08:34;;;;;;;0.08;0.08;;;;;;;;;;5089093;28;20024;-75
2023/10/16 00:11:05;;;;;;;0.10;0.10;;;9.10;99.90;;;;;;5089164;28;20024;-75
2023/10/16 00:13:37;;;;;;;0.10;0.10;;;8.20;99.90;;;;;;5088488;28;20107;-75
2023/10/16 00:16:03;;;;;;;0.10;0.10;;;8.00;99.90;;;;;;5089178;28;20077;-75
2023/10/16 00:18:34;;;;;;;0.10;0.10;;;8.00;99.90;;;;;;5084417;28;20429;-75
2023/10/16 00:21:17;;;;;;;0.10;0.10;;;8.00;99.90;;;;;;5085560;28;20028;-75
2023/10/16 00:23:42;;;;;;;0.10;0.10;;;8.00;99.90;;;;;;5087099;28;20036;-75
2023/10/16 00:26:12;;;;;;;0.10;0.10;;;8.10;99.90;;;;;;5087574;28;20024;-75
2023/10/16 00:28:44;;;;;;;0.10;0.10;;;8.10;99.90;;;;;;5088424;28;20040;-77
2023/10/16 00:31:20;;;;;;;0.10;0.10;;;8.10;99.90;;;;;;5090998;28;20024;-75
2023/10/16 00:33:51;;;;;;;0.10;0.10;;;8.10;99.90;;;;;;5095238;28;20039;-75
2023/10/16 00:36:17;;;;;;;0.10;0.10;;;10.90;99.90;;;;;;5074087;28;20024;-75
2023/10/16 00:38:56;;;;;;;0.10;0.10;;;8.10;99.90;;;;;;5096726;28;20028;-75
2023/10/16 00:41:24;;;;;;;0.10;0.10;;;5.30;99.90;;;;;;5092433;28;20713;-75
2023/10/16 00:43:51;;;;;;;0.20;0.20;;;8.10;99.90;;;;;;5087636;28;20024;-76
2023/10/16 00:46:36;;;;;;;0.00;0.00;;;8.10;99.90;;;;;;5069512;28;20128;-76
2023/10/16 00:49:05;;;;;;;0.10;0.10;;;8.10;99.90;;;;;;5087763;28;20415;-75
2023/10/16 00:51:41;;;;;;;0.10;0.10;;;8.10;99.90;;;;;;5088460;28;20570;-75
2023/10/16 00:54:16;;;;;;;0.10;0.10;;;8.10;99.90;;;;;;5087866;28;20307;-75
2023/10/16 00:56:49;;;;;;;0.10;0.10;;;8.50;99.90;;;;;;5070039;28;20020;-75
2023/10/16 00:59:18;;;;;;;0.10;0.10;;;8.20;99.90;;;;;;5086795;28;20544;-76
2023/10/16 01:01:45;;;;;;;0.20;0.20;;;8.20;99.90;;;;;;5086231;28;20520;-75
2023/10/16 01:04:16;;;;;;;0.10;0.10;;;8.20;99.90;;;;;;5088261;28;20031;-75
2023/10/16 01:06:44;;;;;;;0.13;0.13;;;8.20;99.90;;;;;;5088660;28;20035;-75
2023/10/16 01:09:22;;;;;;;0.10;0.10;;;6.80;99.90;;;;;;5087786;28;20226;-75
2023/10/16 01:11:48;;;;;;;0.10;0.10;;;8.10;99.90;;;;;;5089447;28;20020;-76
2023/10/16 01:14:16;;;;;;;0.10;0.10;;;8.00;99.90;;;;;;5089823;28;20228;-75
2023/10/16 01:16:43;;;;;;;0.10;0.10;;;8.00;99.90;;;;;;5086661;28;20028;-75
2023/10/16 01:19:11;;;;;;;0.10;0.10;;;7.90;99.90;;;;;;5088429;28;20209;-76
2023/10/16 01:21:39;;;;;;;0.20;0.20;;;5.00;99.90;;;;;;5088884;28;20104;-75
2023/10/16 01:24:13;;;;;;;3.88;3.55;;;7.80;99.90;;;;;;5090355;28;20463;-75
2023/10/16 01:26:42;;;;;;;0.03;0.03;;;7.80;99.90;;;;;;5089275;28;20024;-75
2023/10/16 01:29:10;;;;;;;0.10;0.10;;;7.80;99.90;;;;;;5089511;28;20251;-75
2023/10/16 01:31:47;;;;;;;0.10;0.10;;;7.70;99.90;;;;;;5072131;28;20100;-75
2023/10/16 01:34:15;;;;;;;0.10;0.10;;;7.70;99.90;;;;;;5091661;28;20028;-75
2023/10/16 01:36:45;;;;;;;0.20;0.20;;;7.70;99.90;;;;;;5091649;28;20034;-75
2023/10/16 01:40:16;;;;;;;0.00;0.00;;;7.70;99.90;;;;;;5089166;28;20249;-76
2023/10/16 01:42:09;;;;;;;0.00;0.00;;;7.70;99.90;;;;;;5078352;28;20054;-76
2023/10/16 01:44:35;;;;;;;0.10;0.10;;;7.70;99.90;;;;;;5069639;28;20240;-76
2023/10/16 01:47:03;;;;;;;0.00;0.00;;;7.70;99.90;;;;;;5084516;28;20012;-75
2023/10/16 01:49:28;;;;;;;0.10;0.10;;;7.80;99.90;;;;;;5085537;28;20023;-75
2023/10/16 01:51:56;;;;;;;0.10;0.10;;;7.80;99.90;;;;;;5088469;28;20025;-76
2023/10/16 01:54:22;;;;;;;0.00;0.00;;;7.80;99.90;;;;;;5082942;28;20042;-75
2023/10/16 01:56:51;;;;;;;0.10;0.10;;;7.90;99.90;;;;;;5083041;28;20024;-75
2023/10/16 01:59:21;;;;;;;0.10;0.10;;;7.90;99.90;;;;;;5087003;28;20024;-75
2023/10/16 02:01:47;;;;;;;0.03;0.03;;;7.90;99.90;;;;;;5086732;28;20233;-75
2023/10/16 02:04:13;;;;;;;0.00;0.00;;;7.90;99.90;;;;;;5069113;28;20040;-75
2023/10/16 02:06:39;;;;;;;0.10;0.10;;;8.00;99.90;;;;;;5086516;28;20517;-75
2023/10/16 02:09:13;;;;;;;0.10;0.10;;;8.00;99.90;;;;;;5085634;28;20068;-75
2023/10/16 02:11:40;;;;;;;0.00;0.00;;;8.10;99.90;;;;;;5091539;28;20728;-75
2023/10/16 02:14:12;;;;;;;0.10;0.10;;;8.10;99.90;;;;;;5090116;28;20062;-75
2023/10/16 02:16:41;;;;;;;0.00;0.00;;;8.10;99.90;;;;;;5088949;28;20016;-75
2023/10/16 02:19:12;;;;;;;0.10;0.10;;;8.20;99.90;;;;;;5089927;28;20020;-75
2023/10/16 02:21:40;;;;;;;0.00;0.00;;;8.20;99.90;;;;;;5090807;28;20020;-75
2023/10/16 02:24:06;;;;;;;0.82;0.82;;;8.20;99.90;;;;;;5090565;28;20491;-76
2023/10/16 02:26:44;;;;;;;0.10;0.10;;;8.20;99.90;;;;;;5086249;28;20129;-75
2023/10/16 02:29:12;;;;;;;0.08;0.08;;;8.20;99.90;;;;;;5057774;28;20048;-76
2023/10/16 02:31:39;;;;;;;0.08;0.08;;;8.20;99.90;;;;;;5089374;28;20031;-75
2023/10/16 02:34:15;;;;;;;0.10;0.10;;;8.20;99.90;;;;;;5090437;28;20035;-75
2023/10/16 02:36:42;;;;;;;0.10;0.10;;;8.20;99.90;;;;;;5089001;28;20272;-75
2023/10/16 02:39:10;;;;;;;0.00;0.00;;;8.20;99.90;;;;;;5089245;28;20044;-76
2023/10/16 02:41:35;;;;;;;0.00;0.00;;;8.20;99.90;;;;;;5091340;28;20526;-75
2023/10/16 02:44:01;;;;;;;0.10;0.10;;;8.20;99.90;;;;;;5089524;28;20054;-75
2023/10/16 02:46:28;;;;;;;0.10;0.10;;;8.20;99.90;;;;;;5090019;28;20038;-75
2023/10/16 02:48:54;;;;;;;0.10;0.10;;;8.10;99.90;;;;;;5090471;28;20063;-75
2023/10/16 02:51:21;;;;;;;0.10;0.10;;;8.10;99.90;;;;;;5087517;28;20017;-75
2023/10/16 02:53:49;;;;;;;0.10;0.10;;;8.00;99.90;;;;;;5069941;28;20020;-75
2023/10/16 02:56:15;;;;;;;0.20;0.20;;;7.90;99.90;;;;;;5090654;28;20016;-75
2023/10/16 02:58:42;;;;;;;0.10;0.10;;;7.90;99.90;;;;;;5090736;28;20452;-75
2023/10/16 03:01:14;;;;;;;0.03;0.03;;;7.90;99.90;;;;;;5090202;28;20032;-75
2023/10/16 03:03:46;;;;;;;0.10;0.10;;;10.80;99.90;;;;;;5072687;28;20036;-75
2023/10/16 03:06:15;;;;;;;0.75;0.75;;;8.00;99.90;;;;;;5092119;28;20204;-75
2023/10/16 03:08:48;;;;;;;0.10;0.10;;;8.00;99.90;;;;;;5089300;28;20046;-75
2023/10/16 03:11:14;;;;;;;0.05;0.05;;;8.00;99.90;;;;;;5090694;28;20030;-75
2023/10/16 03:13:43;;;;;;;0.10;0.10;;;8.00;99.90;;;;;;5096423;28;20078;-75
2023/10/16 03:16:22;;;;;;;1.67;1.58;;;8.00;99.90;;;;;;5096607;28;20070;-76
2023/10/16 03:18:49;;;;;;;0.10;0.10;;;7.90;99.90;;;;;;5098726;28;20021;-75
2023/10/16 03:23:44;;;;;;;0.10;0.10;;;7.90;99.90;;;;;;5095638;28;20032;-75
2023/10/16 03:26:25;;;;;;;0.00;0.00;;;7.90;99.90;;;;;;5091523;28;20012;-75
2023/10/16 03:28:54;;;;;;;0.10;0.10;;;7.90;99.90;;;;;;5091540;28;20224;-76
2023/10/16 03:31:29;;;;;;;0.10;0.10;;;7.90;99.90;;;;;;5094016;28;20052;-75
2023/10/16 03:33:55;;;;;;;0.10;0.10;;;7.90;99.90;;;;;;5092308;28;20494;-75
2023/10/16 03:36:35;;;;;;;0.10;0.10;;;7.90;99.90;;;;;;5091491;28;20053;-76
2023/10/16 03:39:03;;;;;;;0.10;0.10;;;7.90;99.90;;;;;;5091589;28;20045;-75
2023/10/16 03:41:32;;;;;;;0.10;0.10;;;7.90;99.90;;;;;;5092174;28;20059;-75
2023/10/16 03:44:14;;;;;;;0.10;0.10;;;7.90;99.90;;;;;;5087886;28;20024;-75
2023/10/16 03:46:41;;;;;;;0.10;0.10;;;7.80;99.90;;;;;;5091256;28;20583;-75
2023/10/16 03:49:09;;;;;;;0.10;0.10;;;7.90;99.90;;;;;;5088910;28;20095;-76
2023/10/16 03:51:38;;;;;;;0.00;0.00;;;7.90;99.90;;;;;;5090634;28;20020;-75
2023/10/16 03:54:03;;;;;;;0.10;0.10;;;7.80;99.90;;;;;;5087677;28;20071;-75
2023/10/16 03:56:31;;;;;;;0.10;0.10;;;7.80;99.90;;;;;;5088043;28;20533;-75
2023/10/16 03:58:58;;;;;;;0.03;0.03;;;7.80;99.90;;;;;;5089966;28;20020;-75
2023/10/16 04:01:27;;;;;;;0.00;0.00;;;7.70;99.90;;;;;;5088060;28;20031;-75
2023/10/16 04:03:58;;;;;;;0.10;0.10;;;7.70;99.90;;;;;;5088933;28;20066;-75
2023/10/16 04:06:25;;;;;;;0.10;0.10;;;7.80;99.90;;;;;;5085924;28;20028;-77
2023/10/16 04:08:59;;;;;;;0.10;0.10;;;7.80;99.90;;;;;;5085871;28;20024;-75
2023/10/16 04:11:25;;;;;;;0.00;0.00;;;7.70;99.90;;;;;;5089946;28;20197;-75
2023/10/16 04:13:53;;;;;;;0.10;0.10;;;7.70;99.90;;;;;;5086991;28;20026;-75
2023/10/16 04:16:56;;;;;;;0.08;0.08;;;7.70;99.90;;;;;;5090339;28;20027;-75
2023/10/16 04:33:13;;;;;;;0.00;0.00;;;7.10;99.90;;;;;;5004664;28;20151;-76
2023/10/16 04:46:54;;;;;;;0.10;0.10;;;7.80;99.90;;;;;;5007228;28;20101;-75
2023/10/16 04:49:28;;;;;;;0.00;0.00;;;8.20;99.90;;;;;;5008937;28;20025;-75
2023/10/16 04:52:06;;;;;;;0.10;0.10;;;7.80;99.90;;;;;;5008996;28;20038;-75
2023/10/16 05:00:27;;;;;;;0.00;0.00;;;8.00;99.90;;;;;;5007176;28;20278;-75
2023/10/16 05:03:21;;;;;;;0.63;0.63;;;7.90;99.90;;;;;;5010217;28;20030;-75
2023/10/16 05:05:56;;;;;;;0.10;0.10;;;7.80;99.90;;;;;;5027222;28;20320;-75
2023/10/16 05:08:39;;;;;;;0.10;0.10;;;7.80;99.90;;;;;;5092063;28;20388;-75
2023/10/16 06:14:38;;;;;;;0.10;0.10;;;8.20;99.90;;;;;;5093068;28;19915;-76
2023/10/16 06:17:15;;;;;;;0.10;0.10;;;8.10;99.90;;;;;;5092331;28;20395;-75
2023/10/16 06:19:43;;;;;;;0.10;0.10;;;6.00;99.90;;;;;;5095512;28;20032;-75
2023/10/16 06:22:10;;;;;;;0.10;0.10;;;8.30;99.90;;;;;;5090326;28;20503;-75
2023/10/16 06:24:38;;;;;;;0.10;0.10;;;8.30;99.90;;;;;;5092873;28;20040;-76
2023/10/16 06:27:10;;;;;;;0.10;0.10;;;8.30;99.90;;;;;;5089272;28;20025;-75
2023/10/16 06:29:51;;;;;;;0.10;0.10;;;8.40;99.90;;;;;;5093113;28;20029;-75
2023/10/16 06:32:22;;;;;;;0.10;0.10;;;8.70;99.90;;;;;;5090140;28;20541;-75
2023/10/16 06:34:57;;;;;;;0.20;0.20;;;8.40;99.90;;;;;;5093925;28;20082;-75
2023/10/16 06:37:24;;;;;;;0.10;0.10;;;8.50;99.90;;;;;;5092759;28;20032;-76
2023/10/16 06:40:24;;;;;;;0.10;0.10;;;8.60;99.90;;;;;;5093493;28;20051;-76
2023/10/16 06:42:48;;;;;;;0.10;0.10;;;7.50;99.90;;;;;;5089900;28;20036;-76
2023/10/16 06:45:22;;;;;;;0.38;0.38;;;8.80;99.90;;;;;;5093221;28;20031;-75
2023/10/16 06:47:48;;;;;;;0.10;0.10;;;8.80;99.90;;;;;;5093906;28;20093;-75
2023/10/16 06:50:40;;;;;;;0.10;0.10;;;6.70;99.90;;;;;;5095083;28;20066;-75
2023/10/16 06:53:06;;;;;;;0.20;0.20;;;9.00;99.90;;;;;;5093589;28;20024;-75
2023/10/16 06:55:31;;;;;;;0.10;0.10;;;9.10;99.90;;;;;;5091431;28;20116;-75
2023/10/16 06:57:59;;;;;;;0.10;0.10;;;9.10;99.90;;;;;;5090920;28;20043;-75
2023/10/16 07:00:27;;;;;;;0.10;0.10;;;10.60;99.90;;;;;;5092424;28;20032;-76
2023/10/16 07:02:57;;;;;;;0.10;0.10;;;9.20;99.90;;;;;;5075623;28;20016;-75
2023/10/16 07:05:48;;;;;;;0.10;0.10;;;9.20;99.90;;;;;;5092399;28;20316;-76
2023/10/16 07:08:18;;;;;;;0.10;0.10;;;9.10;99.90;;;;;;5095194;28;20051;-75
2023/10/16 07:10:55;;;;;;;0.13;0.13;;;9.10;99.90;;;;;;5093318;28;20035;-76
2023/10/16 07:13:31;;;;;;;0.10;0.10;;;9.20;99.90;;;;;;5094312;28;20024;-75
2023/10/16 07:15:59;;;;;;;0.00;0.00;;;9.20;99.90;;;;;;5074946;28;20108;-75
2023/10/16 07:18:27;;;;;;;0.10;0.10;;;9.20;99.90;;;;;;5092690;28;20338;-75
2023/10/16 07:21:00;;;;;;;0.10;0.10;;;9.30;99.90;;;;;;5090996;28;20016;-75
2023/10/16 07:23:39;;;;;;;0.10;0.10;;;9.40;99.90;;;;;;5097198;28;20028;-75
2023/10/16 07:26:09;;;;;;;0.10;0.10;;;9.50;99.90;;;;;;5100603;28;20031;-76
2023/10/16 07:28:36;;;;;;;0.15;0.15;;;9.60;99.90;;;;;;5082431;28;20031;-76
2023/10/16 07:31:05;;;;;;;0.10;0.10;;;9.70;99.90;;;;;;5071690;28;20525;-76
2023/10/16 07:33:32;;;;;;;0.10;0.10;;;9.80;99.90;;;;;;5088186;28;20220;-76
2023/10/16 07:35:59;;;;;;;2.78;2.15;;;10.00;99.90;;;;;;5092298;28;20020;-76
2023/10/16 07:38:27;;;;;;;0.10;0.10;;;10.10;99.90;;;;;;5090784;28;20241;-76
2023/10/16 07:41:03;;;;;;;1.33;1.27;;;9.80;99.90;;;;;;5095820;28;20024;-76
2023/10/16 07:43:34;;;;;;;0.10;0.10;;;10.40;99.90;;;;;;5095844;28;20032;-76
2023/10/16 07:48:37;;;;;;;0.10;0.10;;;10.80;99.90;;;;;;5096482;28;20024;-75
2023/10/16 07:51:07;;;;;;;0.20;0.20;;;10.80;99.90;;;;;;5094845;28;20044;-76
2023/10/16 07:53:56;;;;;;;0.20;0.20;;;12.20;99.90;;;;;;5079099;28;20077;-75
2023/10/16 07:56:29;;;;;;;0.20;0.20;;;10.70;99.90;;;;;;5074490;28;20016;-75
2023/10/16 07:59:09;;;;;;;0.20;0.20;;;10.50;99.90;;;;;;5074898;28;20057;-75
2023/10/16 08:04:06;;;;;;;0.10;0.10;;;10.60;99.90;;;;;;5092009;28;20109;-76
2023/10/16 08:06:39;;;;;;;0.28;0.28;;;10.00;99.90;;;;;;5092386;28;20024;-75
2023/10/16 08:09:48;;;;;;;0.10;0.10;;;10.50;99.90;;;;;;5087265;28;20635;-76
2023/10/16 08:12:51;;;;;;;0.10;0.10;;;10.60;99.90;;;;;;5092178;28;20483;-75
2023/10/16 08:14:55;;;;;;;0.15;0.15;;;10.80;99.90;;;;;;5065628;28;20075;-75
2023/10/16 08:17:24;;;;;;;0.35;0.35;;;11.00;99.90;;;;;;5085992;28;20028;-75
2023/10/16 08:19:51;;;;;;;0.40;0.40;;;11.20;99.90;;;;;;5090943;28;20046;-75
2023/10/16 08:22:25;;;;;;;0.17;0.17;;;11.30;99.90;;;;;;5092817;28;20028;-75
2023/10/16 08:24:58;;;;;;;0.20;0.20;;;11.10;99.90;;;;;;5088100;28;20046;-75
2023/10/16 08:30:17;;;;;;;0.20;0.20;;;10.90;99.90;;;;;;5073429;28;20035;-75
2023/10/16 08:35:19;;;;;;;2.92;2.83;;;11.00;99.90;;;;;;5090270;28;20027;-75
2023/10/16 08:37:56;;;;;;;0.20;0.20;;;11.80;99.90;;;;;;5085475;28;20028;-75
2023/10/16 08:40:35;;;;;;;0.10;0.10;;;11.40;99.90;;;;;;5092187;28;20025;-76
2023/10/16 08:43:07;;;;;;;0.10;0.10;;;11.50;99.90;;;;;;5088108;28;20035;-75
2023/10/16 08:45:34;;;;;;;0.20;0.20;;;11.80;99.90;;;;;;5088509;28;20081;-75
2023/10/16 08:48:06;;;;;;;0.10;0.10;;;11.90;99.90;;;;;;5089643;28;20051;-76
2023/10/16 08:50:40;;;;;;;0.10;0.10;;;11.90;99.90;;;;;;5088254;28;20096;-75
2023/10/16 08:53:31;;;;;;;0.10;0.10;;;12.10;99.90;;;;;;5082812;28;20058;-75
2023/10/16 08:56:03;;;;;;;0.17;0.17;;;12.20;99.90;;;;;;5082695;28;20024;-75
2023/10/16 08:58:44;;;;;;;0.10;0.10;;;12.40;99.90;;;;;;5082321;28;20024;-78
2023/10/16 09:01:14;;;;;;;0.10;0.10;;;12.50;99.90;;;;;;5080286;28;20376;-78
2023/10/16 09:03:51;;;;;;;0.10;0.10;;;12.40;99.90;;;;;;5063167;28;20046;-76
2023/10/16 09:06:24;;;;;;;0.30;0.30;;;12.70;99.90;;;;;;5079209;28;20078;-83
2023/10/16 09:08:54;;;;;;;0.20;0.20;;;13.00;99.90;;;;;;5062625;28;20047;-77
2023/10/16 09:11:21;;;;;;;0.20;0.20;;;13.40;99.90;;;;;;5080619;28;20081;-76
2023/10/16 09:13:51;;;;;;;1.05;1.05;;;13.30;99.90;;;;;;5080299;28;20024;-77
2023/10/16 09:16:23;;;;;;;0.10;0.10;;;14.10;99.90;;;;;;5079727;28;20539;-80
2023/10/16 09:18:51;;;;;;;0.20;0.20;;;13.70;99.90;;;;;;5078946;28;20337;-80
2023/10/16 09:21:28;;;;;;;1.08;1.00;;;13.80;99.00;;;;;;5078631;28;20020;-76
2023/10/16 09:24:00;;;;;;;0.10;0.10;;;13.90;99.20;;;;;;5077751;28;20113;-76
2023/10/16 09:26:32;;;;;;;1.33;1.33;;;13.70;98.80;;;;;;5059459;28;20396;-80
2023/10/16 09:29:04;;;;;;;0.30;0.30;;;13.70;97.60;;;;;;5078268;28;20024;-79
2023/10/16 09:31:31;;;;;;;0.10;0.10;;;13.60;98.50;;;;;;5078076;28;20138;-76
2023/10/16 09:33:57;;;;;;;0.10;0.10;;;13.70;98.80;;;;;;5059561;28;20032;-77
2023/10/16 09:36:23;;;;;;;0.10;0.10;;;13.80;99.10;;;;;;5078015;28;20490;-76
2023/10/16 09:38:57;;;;;;;1.27;1.27;;;13.80;99.00;;;;;;5058793;28;20048;-80
2023/10/16 09:44:07;;;;;;;0.82;0.82;;;13.90;97.30;;;;;;5076944;28;20102;-79
2023/10/16 09:49:14;;;;;;;0.10;0.10;;;14.10;98.80;;;;;;5078269;28;20103;-78
2023/10/16 09:51:45;;;;;;;0.10;0.10;;;14.30;95.80;;;;;;5078078;28;20288;-82
2023/10/16 09:54:13;;;;;;;0.10;0.10;;;14.10;95.70;;;;;;5077575;28;20084;-80
2023/10/16 09:56:44;;;;;;;0.10;0.10;;;17.10;96.40;;;;;;5077461;28;20292;-78
2023/10/16 09:59:33;;;;;;;0.10;0.10;;;14.40;95.40;;;;;;5077426;28;20471;-81
2023/10/16 10:02:09;;;;;;;0.10;0.10;;;14.60;95.00;;;;;;5077802;28;20514;-82
2023/10/16 10:04:38;;;;;;;0.75;0.75;;;14.70;95.40;;;;;;5077921;28;20039;-87
2023/10/16 10:07:11;;;;;;;0.10;0.10;;;15.00;94.30;;;;;;5077957;28;20022;-77
2023/10/16 10:09:44;;;;;;;0.10;0.10;;;16.00;95.10;;;;;;5078220;28;20020;-75
2023/10/16 10:12:43;;;;;;;0.10;0.10;;;14.90;93.50;;;;;;5043361;28;20493;-76
2023/10/16 10:15:26;;;;;;;0.10;0.10;;;14.90;94.30;;;;;;5077571;28;20028;-75
2023/10/16 10:17:55;;;;;;;0.10;0.10;;;14.90;93.90;;;;;;5059421;28;20020;-75
2023/10/16 10:20:26;;;;;;;0.10;0.10;;;15.10;94.20;;;;;;5077708;28;20020;-76
2023/10/16 10:22:58;;;;;;;0.10;0.10;;;15.30;94.20;;;;;;5077991;28;20024;-81
2023/10/16 10:25:37;;;;;;;0.10;0.10;;;15.20;93.40;;;;;;5078103;28;20032;-75
2023/10/16 10:28:17;;;;;;;0.10;0.10;;;15.40;92.80;;;;;;5078060;28;20053;-78
2023/10/16 10:30:44;;;;;;;0.75;0.75;;;15.40;92.10;;;;;;5080994;28;20059;-76
2023/10/16 10:33:34;;;;;;;0.82;0.82;;;15.30;92.20;;;;;;5081595;28;20144;-78
2023/10/16 10:36:34;;;;;;;0.10;0.10;;;15.40;91.60;;;;;;5081598;28;20036;-75
2023/10/16 10:39:23;;;;;;;0.10;0.10;;;15.60;92.80;;;;;;5082081;28;20328;-77
2023/10/16 10:42:09;;;;;;;0.10;0.10;;;15.30;91.80;;;;;;5081976;28;20016;-78
2023/10/16 10:44:39;;;;;;;0.10;0.10;;;17.00;91.70;;;;;;5082148;28;20059;-75
2023/10/16 10:47:20;;;;;;;0.10;0.10;;;12.90;89.70;;;;;;5081539;28;20217;-75
2023/10/16 10:49:49;;;;;;;0.80;0.80;;;15.10;91.90;;;;;;5081909;28;20097;-77
2023/10/16 10:52:18;;;;;;;0.00;0.00;;;15.40;91.00;;;;;;5062529;28;20399;-85
2023/10/16 10:54:44;;;;;;;0.10;0.10;;;16.20;91.70;;;;;;5063354;28;20031;-83
2023/10/16 10:57:18;;;;;;;0.38;0.38;;;15.60;91.80;;;;;;5065762;28;20020;-75
2023/10/16 11:00:22;;;;;;;0.10;0.10;;;15.50;91.50;;;;;;5084621;28;20488;-76
2023/10/16 11:02:52;;;;;;;0.10;0.10;;;15.70;91.20;;;;;;5084151;28;20478;-82
2023/10/16 11:05:24;;;;;;;0.10;0.10;;;15.50;90.80;;;;;;5083528;28;20048;-78
2023/10/16 11:10:46;;;;;;;0.10;0.10;;;15.50;89.40;;;;;;5082171;28;20191;-75
2023/10/16 11:13:13;;;;;;;0.10;0.10;;;15.40;90.90;;;;;;5047362;28;20437;-75
2023/10/16 11:15:53;;;;;;;0.10;0.10;;;16.20;91.30;;;;;;5082024;28;20229;-80
2023/10/16 11:18:20;;;;;;;0.75;0.75;;;15.80;89.40;;;;;;5080851;28;20517;-76
2023/10/16 11:21:04;;;;;;;0.13;0.13;;;15.90;87.70;;;;;;5062743;28;20024;-83
2023/10/16 11:23:31;;;;;;;0.10;0.10;;;15.90;89.50;;;;;;5079671;28;20031;-75
2023/10/16 11:25:58;;;;;;;1.30;1.20;;;16.00;88.30;;;;;;5079744;28;20413;-73
2023/10/16 11:28:28;;;;;;;0.30;0.30;;;15.90;88.90;;;;;;5061993;28;20112;-78
2023/10/16 11:30:56;;;;;;;0.10;0.10;;;15.90;88.10;;;;;;5080292;28;20197;-76
2023/10/16 11:34:00;;;;;;;0.10;0.10;;;16.20;87.60;;;;;;5080000;28;20525;-81
2023/10/16 11:36:31;;;;;;;0.10;0.10;;;16.50;87.20;;;;;;5080354;28;20534;-75
2023/10/16 11:39:03;;;;;;;0.10;0.10;;;16.40;86.20;;;;;;5061513;28;20192;-75
2023/10/16 11:41:30;;;;;;;0.95;0.95;;;16.70;86.20;;;;;;5080146;28;20045;-82
2023/10/16 11:44:01;;;;;;;0.10;0.10;;;16.90;86.10;;;;;;5079807;28;20196;-78
2023/10/16 11:46:38;;;;;;;0.10;0.10;;;17.30;85.10;;;;;;5081010;28;20111;-84
2023/10/16 11:49:22;;;;;;;0.10;0.10;;;17.40;82.30;;;;;;5080798;28;20023;-82
2023/10/16 11:51:49;;;;;;;0.88;0.88;;;17.10;82.20;;;;;;5080900;28;20028;-74
2023/10/16 11:54:20;;;;;;;0.10;0.10;;;17.30;82.70;;;;;;5066077;28;20541;-75
2023/10/16 11:56:56;;;;;;;0.10;0.10;;;17.10;79.70;;;;;;5082358;28;20032;-74
2023/10/16 11:59:24;;;;;;;0.10;0.10;;;16.90;80.10;;;;;;5084241;28;20019;-74
2023/10/16 12:01:53;;;;;;;0.20;0.20;;;14.40;77.60;;;;;;5066228;28;20106;-77
2023/10/16 12:04:20;;;;;;;0.10;0.10;;;16.50;82.10;;;;;;5080598;28;20486;-82
2023/10/16 12:06:49;;;;;;;0.10;0.10;;;16.90;80.90;;;;;;5082258;28;20039;-82
2023/10/16 12:09:19;;;;;;;0.30;0.30;;;16.90;79.90;;;;;;5080672;28;20027;-77
2023/10/16 12:11:49;;;;;;;0.10;0.10;;;17.00;79.60;;;;;;5061829;28;20502;-80
2023/10/16 12:14:16;;;;;;;0.17;0.17;;;17.00;81.30;;;;;;5079432;28;20032;-84
2023/10/16 12:16:47;;;;;;;0.10;0.10;;;17.20;81.00;;;;;;5079168;28;20017;-73
2023/10/16 12:19:16;;;;;;;0.10;0.10;;;17.60;78.40;;;;;;5079377;28;20046;-81
2023/10/16 12:21:52;;;;;;;0.10;0.10;;;17.60;79.60;;;;;;5079898;28;20024;-87
2023/10/16 12:24:18;;;;;;;0.10;0.10;;;17.90;76.50;;;;;;5079181;28;20123;-78
2023/10/16 12:26:45;;;;;;;0.10;0.10;;;17.90;76.60;;;;;;5078701;28;20723;-77
2023/10/16 12:29:11;;;;;;;0.10;0.10;;;18.00;75.00;;;;;;5060197;28;20036;-77
2023/10/16 12:31:40;;;;;;;0.10;0.10;;;17.90;74.80;;;;;;5079526;28;20092;-85
2023/10/16 12:34:10;;;;;;;0.20;0.20;;;18.00;76.10;;;;;;5045266;28;20131;-78
2023/10/16 12:36:42;;;;;;;1.38;1.27;;;17.70;74.50;;;;;;5079076;28;20019;-77
2023/10/16 12:39:18;;;;;;;0.10;0.10;;;17.90;76.30;;;;;;5079543;28;20092;-83
2023/10/16 12:41:44;;;;;;;0.10;0.10;;;18.00;73.00;;;;;;5062848;28;20024;-83
2023/10/16 12:44:11;;;;;;;0.10;0.10;;;17.60;72.70;;;;;;5079347;28;20055;-83
2023/10/16 12:46:37;;;;;;;0.10;0.10;;;18.40;74.40;;;;;;5060572;28;20082;-87
2023/10/16 12:49:07;;;;;;;0.10;0.10;;;18.40;74.80;;;;;;5079026;28;20313;-79
2023/10/16 12:51:38;;;;;;;0.10;0.10;;;17.60;75.10;;;;;;5078511;28;20513;-79
2023/10/16 12:54:06;;;;;;;0.10;0.10;;;17.70;75.10;;;;;;5078650;28;20043;-76
2023/10/16 12:56:32;;;;;;;0.10;0.10;;;17.60;76.00;;;;;;5059883;28;20024;-80
2023/10/16 12:59:03;;;;;;;0.10;0.10;;;17.00;76.60;;;;;;5079233;28;20657;-80
2023/10/16 13:01:29;;;;;;;0.10;0.10;;;16.60;74.70;;;;;;5078189;28;20042;-76
2023/10/16 13:03:59;;;;;;;0.10;0.10;;;17.70;75.80;;;;;;5078738;28;20051;-80
2023/10/16 13:06:30;;;;;;;0.10;0.10;;;17.80;75.50;;;;;;5060355;28;20028;-77
2023/10/16 13:08:57;;;;;;;0.30;0.30;;;17.70;74.70;;;;;;5077982;28;20548;-76
2023/10/16 13:11:24;;;;;;;0.10;0.10;;;17.70;75.20;;;;;;5077985;28;20331;-76
2023/10/16 13:13:51;;;;;;;0.20;0.20;;;17.90;75.00;;;;;;5078307;28;20270;-76
2023/10/16 13:16:24;;;;;;;1.10;1.10;;;;;;;;;;5078864;28;20433;-81
2023/10/16 13:18:57;;;;;;;0.10;0.10;;;18.10;74.90;;;;;;5077752;28;20122;-80
2023/10/16 13:21:32;;;;;;;0.10;0.10;;;20.20;76.00;;;;;;5077890;28;20024;-77
2023/10/16 13:24:04;;;;;;;0.20;0.20;;;19.00;74.30;;;;;;5077487;28;20036;-77
2023/10/16 13:26:35;;;;;;;0.10;0.10;;;;;;;;;;5077919;28;20243;-76
2023/10/16 13:29:08;;;;;;;0.10;0.10;;;19.60;71.00;;;;;;5079352;28;20024;-79
2023/10/16 13:31:41;;;;;;;0.10;0.10;;;19.60;70.40;;;;;;5078616;28;20498;-74
2023/10/16 13:34:11;;;;;;;0.10;0.10;;;19.60;71.10;;;;;;5059089;28;20361;-76
2023/10/16 13:36:37;;;;;;;0.10;0.10;;;19.50;70.10;;;;;;5059903;28;20707;-75
2023/10/16 13:39:09;;;;;;;0.10;0.10;;;20.00;70.00;;;;;;5077917;28;20051;-77
2023/10/16 13:41:50;;;;;;;0.10;0.10;;;20.30;68.70;;;;;;5078700;28;20126;-74
2023/10/16 13:44:29;;;;;;;2.03;1.92;;;20.20;67.40;;;;;;5077516;28;20092;-75
2023/10/16 13:46:55;;;;;;;0.32;0.30;;;20.20;68.20;;;;;;5077887;28;20020;-75
2023/10/16 13:49:23;;;;;;;0.90;0.68;;;20.30;68.60;;;;;;5059399;28;20024;-75
2023/10/16 13:51:52;;;;;;;5.22;4.95;;;20.50;68.10;;;;;;5077292;28;20053;-78
2023/10/16 13:54:18;;;;;;;0.10;0.10;;;20.50;68.00;;;;;;5077783;28;20047;-79
2023/10/16 13:56:46;;;;;;;0.10;0.10;;;18.70;66.00;;;;;;5077613;28;20062;-74
2023/10/16 13:59:13;;;;;;;1.88;1.77;;;20.70;67.10;;;;;;5059608;28;20316;-75
2023/10/16 14:01:39;;;;;;;1.25;1.25;;;20.90;66.30;;;;;;5077424;28;20021;-75
2023/10/16 14:04:16;;;;;;;0.10;0.10;;;21.00;66.50;;;;;;5077824;28;20028;-75
2023/10/16 14:06:44;;;;;;;0.10;0.10;;;21.00;65.90;;;;;;5081528;28;20024;-75
2023/10/16 14:09:20;;;;;;;0.30;0.30;;;21.00;66.60;;;;;;5063258;28;20073;-76
2023/10/16 14:11:49;;;;;;;0.10;0.10;;;20.80;64.90;;;;;;5062605;28;20040;-75
2023/10/16 14:14:20;;;;;;;0.10;0.10;;;20.50;65.80;;;;;;5063310;28;20510;-79
2023/10/16 14:16:54;;;;;;;0.10;0.10;;;20.60;65.90;;;;;;5081158;28;20047;-76
2023/10/16 14:19:28;;;;;;;0.28;0.28;;;20.40;66.20;;;;;;5062627;28;20304;-79
2023/10/16 14:21:55;;;;;;;0.10;0.10;;;19.10;65.30;;;;;;5081004;28;20043;-75
2023/10/16 14:24:24;;;;;;;2.08;1.38;;;20.90;66.10;;;;;;5080848;28;20024;-75
2023/10/16 14:26:56;;;;;;;0.10;0.10;;;21.10;65.20;;;;;;5080990;28;20028;-80
2023/10/16 14:29:22;;;;;;;0.13;0.13;;;21.30;65.20;;;;;;5063347;28;20024;-78
2023/10/16 14:31:55;;;;;;;0.63;0.63;;;21.60;65.20;;;;;;5080996;28;20044;-85
2023/10/16 14:34:24;;;;;;;0.20;0.20;;;21.30;64.90;;;;;;5081889;28;20313;-86
2023/10/16 14:36:51;;;;;;;2.30;2.10;;;20.80;65.20;;;;;;5084172;28;20213;-76
2023/10/16 14:39:23;;;;;;;1.38;1.27;;;19.90;65.30;;;;;;5083090;28;20100;-74
2023/10/16 14:41:49;;;;;;;0.10;0.10;;;20.30;65.80;;;;;;5086440;28;20020;-75
2023/10/16 14:44:15;;;;;;;0.45;0.45;;;19.70;67.90;;;;;;5082883;28;20422;-75
2023/10/16 14:46:42;;;;;;;0.10;0.10;;;19.40;68.30;;;;;;5063688;28;20459;-79
2023/10/16 14:49:10;;;;;;;0.98;0.63;;;19.30;68.70;;;;;;5082202;28;20055;-75
2023/10/16 14:51:38;;;;;;;2.90;1.33;;;18.90;69.70;;;;;;5062776;28;20547;-79
2023/10/16 14:54:10;;;;;;;0.20;0.20;;;15.90;67.80;;;;;;5081123;28;20258;-80
2023/10/16 14:56:42;;;;;;;0.10;0.10;;;18.40;70.80;;;;;;5080317;28;20024;-83
2023/10/16 14:59:13;;;;;;;0.10;0.10;;;17.60;71.00;;;;;;5080876;28;20491;-75
2023/10/16 15:01:39;;;;;;;0.10;0.10;;;17.60;71.60;;;;;;5080730;28;20012;-77
2023/10/16 15:04:08;;;;;;;0.10;0.10;;;19.20;74.10;;;;;;5080779;28;20044;-75
2023/10/16 15:06:34;;;;;;;0.10;0.10;;;17.40;73.80;;;;;;5062917;28;20051;-75
2023/10/16 15:09:09;;;;;;;0.10;0.10;;;17.30;73.70;;;;;;5082619;28;20013;-75
2023/10/16 15:11:35;;;;;;;0.10;0.10;;;17.00;74.90;;;;;;5066477;28;20100;-75